createdAt,value
2022-10-15T00:00:54.630Z,14.1
2022-10-15T00:02:10.915Z,14.1
2022-10-15T00:03:27.217Z,14.1
2022-10-15T00:04:43.509Z,14.1
2022-10-15T00:05:58.804Z,14.1
2022-10-15T00:07:15.097Z,14.1
2022-10-15T00:08:31.389Z,14.1
2022-10-15T00:09:47.684Z,14.1
2022-10-15T00:11:03.980Z,14.1
2022-10-15T00:12:20.274Z,14.1
2022-10-15T00:13:36.571Z,14.1
2022-10-15T00:14:52.859Z,14
2022-10-15T00:16:09.161Z,14.1
2022-10-15T00:17:25.444Z,14.1
2022-10-15T00:18:41.756Z,14
2022-10-15T00:19:58.035Z,14.1
2022-10-15T00:21:14.337Z,14.1
2022-10-15T00:22:29.639Z,14.1
2022-10-15T00:23:45.933Z,14.1
2022-10-15T00:26:18.519Z,14.1
2022-10-15T00:27:34.824Z,14.1
2022-10-15T00:28:51.116Z,14.1
2022-10-15T00:30:07.413Z,14.1
2022-10-15T00:31:23.700Z,14.1
2022-10-15T00:32:39.985Z,14.1
2022-10-15T00:33:56.296Z,14.1
2022-10-15T00:35:12.587Z,14.1
2022-10-15T00:36:28.882Z,14.1
2022-10-15T00:39:01.456Z,14.1
2022-10-15T00:40:16.780Z,14.1
2022-10-15T00:41:33.061Z,14.1
2022-10-15T00:42:49.367Z,14.1
2022-10-15T00:44:05.660Z,14.1
2022-10-15T00:45:21.953Z,14.1
2022-10-15T00:46:38.233Z,14.2
2022-10-15T00:47:54.546Z,14.1
2022-10-15T00:49:10.828Z,14.1
2022-10-15T00:50:27.121Z,14.1
2022-10-15T00:51:43.411Z,14.2
2022-10-15T00:52:59.718Z,14.1
2022-10-15T00:54:16.003Z,14.2
2022-10-15T00:56:48.612Z,14.2
2022-10-15T00:59:21.187Z,14.2
2022-10-15T01:01:52.799Z,14.2
2022-10-15T01:03:08.105Z,14.2
2022-10-15T01:04:23.424Z,14.2
2022-10-15T01:05:39.705Z,14.2
2022-10-15T01:06:56.002Z,14.2
2022-10-15T01:08:12.292Z,14.2
2022-10-15T01:09:28.590Z,14.2
2022-10-15T01:10:44.885Z,14.2
2022-10-15T01:12:01.179Z,14.3
2022-10-15T01:13:17.472Z,14.2
2022-10-15T01:14:33.762Z,14.2
2022-10-15T01:15:50.062Z,14.3
2022-10-15T01:17:05.372Z,14.2
2022-10-15T01:18:20.686Z,14.3
2022-10-15T01:19:36.982Z,14.3
2022-10-15T01:20:53.262Z,14.2
2022-10-15T01:22:09.553Z,14.2
2022-10-15T01:23:25.850Z,14.2
2022-10-15T01:24:42.138Z,14.3
2022-10-15T01:25:58.439Z,14.3
2022-10-15T01:27:14.744Z,14.3
2022-10-15T01:28:31.028Z,14.3
2022-10-15T01:29:47.315Z,14.3
2022-10-15T01:31:03.624Z,14.3
2022-10-15T01:33:36.216Z,14.3
2022-10-15T01:34:51.514Z,14.2
2022-10-15T01:36:07.814Z,14.2
2022-10-15T01:37:24.110Z,14.3
2022-10-15T01:39:56.687Z,14.3
2022-10-15T01:41:11.997Z,14.3
2022-10-15T01:42:27.322Z,14.3
2022-10-15T01:43:43.617Z,14.3
2022-10-15T01:47:32.492Z,14.3
2022-10-15T01:48:48.774Z,14.3
2022-10-15T01:50:05.079Z,14.3
2022-10-15T01:51:21.377Z,14.3
2022-10-15T01:52:37.667Z,14.3
2022-10-15T01:53:53.963Z,14.3
2022-10-15T01:55:10.259Z,14.3
2022-10-15T01:56:25.567Z,14.3
2022-10-15T01:58:57.177Z,14.3
2022-10-15T02:00:12.488Z,14.3
2022-10-15T02:01:28.778Z,14.2
2022-10-15T02:02:44.089Z,14.2
2022-10-15T02:05:16.683Z,14.2
2022-10-15T02:06:32.974Z,14.2
2022-10-15T02:07:49.258Z,14.2
2022-10-15T02:09:05.561Z,14.2
2022-10-15T02:11:38.144Z,14.3
2022-10-15T02:12:54.438Z,14.2
2022-10-15T02:14:10.727Z,14.3
2022-10-15T02:15:27.028Z,14.3
2022-10-15T02:16:43.311Z,14.3
2022-10-15T02:17:59.619Z,14.2
2022-10-15T02:19:14.920Z,14.2
2022-10-15T02:20:31.227Z,14.2
2022-10-15T02:21:47.509Z,14.3
2022-10-15T02:23:03.803Z,14.2
2022-10-15T02:24:20.098Z,14.2
2022-10-15T02:25:36.402Z,14.3
2022-10-15T02:26:52.682Z,14.2
2022-10-15T02:28:08.982Z,14.3
2022-10-15T02:29:25.283Z,14.2
2022-10-15T02:30:41.576Z,14.2
2022-10-15T02:31:56.873Z,14.2
2022-10-15T02:33:12.000Z,14.2
2022-10-15T02:34:28.488Z,14.2
2022-10-15T02:35:44.777Z,14.2
2022-10-15T02:37:01.073Z,14.2
2022-10-15T02:38:17.371Z,14.2
2022-10-15T02:40:49.955Z,14.3
2022-10-15T02:42:06.246Z,14.2
2022-10-15T02:43:22.534Z,14.3
2022-10-15T02:44:38.835Z,14.2
2022-10-15T02:45:55.133Z,14.3
2022-10-15T02:47:11.414Z,14.2
2022-10-15T02:49:44.000Z,14.3
2022-10-15T02:52:15.614Z,14.3
2022-10-15T02:53:30.925Z,14.3
2022-10-15T02:54:47.223Z,14.3
2022-10-15T02:56:02.530Z,14.2
2022-10-15T02:57:18.839Z,14.2
2022-10-15T02:58:35.118Z,14.3
2022-10-15T03:02:23.981Z,14.3
2022-10-15T03:03:40.271Z,14.2
2022-10-15T03:04:56.577Z,14.2
2022-10-15T03:06:12.856Z,14.3
2022-10-15T03:07:29.160Z,14.2
2022-10-15T03:08:45.460Z,14.3
2022-10-15T03:10:01.752Z,14.3
2022-10-15T03:11:18.035Z,14.2
2022-10-15T03:12:33.344Z,14.3
2022-10-15T03:15:05.931Z,14.3
2022-10-15T03:16:22.230Z,14.3
2022-10-15T03:17:38.530Z,14.2
2022-10-15T03:18:54.808Z,14.2
2022-10-15T03:20:11.119Z,14.3
2022-10-15T03:21:27.400Z,14.3
2022-10-15T03:22:43.687Z,14.3
2022-10-15T03:23:59.987Z,14.3
2022-10-15T03:25:16.293Z,14.2
2022-10-15T03:26:32.576Z,14.2
2022-10-15T03:27:48.876Z,14.2
2022-10-15T03:29:04.192Z,14.3
2022-10-15T03:30:20.479Z,14.2
2022-10-15T03:31:35.786Z,14.3
2022-10-15T03:32:52.092Z,14.3
2022-10-15T03:34:08.387Z,14.3
2022-10-15T03:35:24.672Z,14.3
2022-10-15T03:36:40.964Z,14.3
2022-10-15T03:37:57.252Z,14.2
2022-10-15T03:39:13.542Z,14.2
2022-10-15T03:40:29.851Z,14.2
2022-10-15T03:43:02.434Z,14.3
2022-10-15T03:44:18.734Z,14.2
2022-10-15T03:45:35.009Z,14.2
2022-10-15T03:46:51.321Z,14.2
2022-10-15T03:48:06.628Z,14.3
2022-10-15T03:49:22.907Z,14.3
2022-10-15T03:50:39.206Z,14.2
2022-10-15T03:51:55.510Z,14.2
2022-10-15T03:53:11.801Z,14.2
2022-10-15T03:54:28.100Z,14.3
2022-10-15T03:57:00.669Z,14.2
2022-10-15T03:58:16.979Z,14.3
2022-10-15T03:59:33.258Z,14.3
2022-10-15T04:00:49.565Z,14.3
2022-10-15T04:02:05.852Z,14.3
2022-10-15T04:03:22.154Z,14.2
2022-10-15T04:04:37.457Z,14.3
2022-10-15T04:05:53.754Z,14.2
2022-10-15T04:07:10.034Z,14.3
2022-10-15T04:08:26.334Z,14.3
2022-10-15T04:09:41.660Z,14.2
2022-10-15T04:10:56.951Z,14.3
2022-10-15T04:12:13.248Z,14.2
2022-10-15T04:13:29.540Z,14.2
2022-10-15T04:14:45.836Z,14.2
2022-10-15T04:16:02.139Z,14.3
2022-10-15T04:18:34.727Z,14.3
2022-10-15T04:19:51.020Z,14.3
2022-10-15T04:21:07.312Z,14.3
2022-10-15T04:22:23.610Z,14.3
2022-10-15T04:23:39.892Z,14.3
2022-10-15T04:24:56.189Z,14.3
2022-10-15T04:26:12.495Z,14.3
2022-10-15T04:27:28.780Z,14.3
2022-10-15T04:28:44.085Z,14.2
2022-10-15T04:30:00.392Z,14.3
2022-10-15T04:32:32.968Z,14.2
2022-10-15T04:33:49.273Z,14.2
2022-10-15T04:35:04.574Z,14.2
2022-10-15T04:36:19.885Z,14.2
2022-10-15T04:37:36.190Z,14.2
2022-10-15T04:38:52.474Z,14.2
2022-10-15T04:40:08.759Z,14.2
2022-10-15T04:41:25.065Z,14.2
2022-10-15T04:43:57.653Z,14.1
2022-10-15T04:45:13.940Z,14.2
2022-10-15T04:46:30.248Z,14.1
2022-10-15T04:47:46.538Z,14.1
2022-10-15T04:49:02.830Z,14.1
2022-10-15T04:50:19.115Z,14
2022-10-15T04:51:35.405Z,14
2022-10-15T04:52:50.716Z,14
2022-10-15T04:54:07.008Z,14.1
2022-10-15T04:56:39.609Z,14.1
2022-10-15T04:57:54.912Z,14.1
2022-10-15T04:59:11.162Z,14.1
2022-10-15T05:00:26.461Z,14
2022-10-15T05:01:42.763Z,14.1
2022-10-15T05:02:59.004Z,14.1
2022-10-15T05:04:15.255Z,14.1
2022-10-15T05:05:31.496Z,14.1
2022-10-15T05:06:47.776Z,14.1
2022-10-15T05:08:04.033Z,14.1
2022-10-15T05:09:20.270Z,14.1
2022-10-15T05:10:36.514Z,14.1
2022-10-15T05:11:52.751Z,14.1
2022-10-15T05:13:08.009Z,14.1
2022-10-15T05:15:40.496Z,14.1
2022-10-15T05:16:55.744Z,14.2
2022-10-15T05:18:11.994Z,14.2
2022-10-15T05:19:28.222Z,14.2
2022-10-15T05:20:44.466Z,14.2
2022-10-15T05:22:00.712Z,14.2
2022-10-15T05:23:16.941Z,14.2
2022-10-15T05:24:33.184Z,14.2
2022-10-15T05:25:49.431Z,14.2
2022-10-15T05:27:05.670Z,14.2
2022-10-15T05:28:20.920Z,14.2
2022-10-15T05:29:36.188Z,14.2
2022-10-15T05:30:52.426Z,14.2
2022-10-15T05:32:08.666Z,14.2
2022-10-15T05:34:41.146Z,14.3
2022-10-15T05:35:57.395Z,14.3
2022-10-15T05:37:13.632Z,14.3
2022-10-15T05:38:29.863Z,14.3
2022-10-15T05:39:46.109Z,14.3
2022-10-15T05:41:02.335Z,14.3
2022-10-15T05:42:18.584Z,14.3
2022-10-15T05:43:34.826Z,14.3
2022-10-15T05:44:51.054Z,14.4
2022-10-15T05:46:06.316Z,14.3
2022-10-15T05:47:22.551Z,14.3
2022-10-15T05:48:38.794Z,14.3
2022-10-15T05:49:55.030Z,14.3
2022-10-15T05:51:11.284Z,14.3
2022-10-15T05:52:27.518Z,14.4
2022-10-15T05:53:43.763Z,14.3
2022-10-15T05:54:59.990Z,14.4
2022-10-15T05:56:16.237Z,14.3
2022-10-15T05:57:32.483Z,14.4
2022-10-15T06:00:04.956Z,14.4
2022-10-15T06:01:21.197Z,14.4
2022-10-15T06:02:37.442Z,14.4
2022-10-15T06:03:52.685Z,14.4
2022-10-15T06:05:08.922Z,14.4
2022-10-15T06:06:25.166Z,14.4
2022-10-15T06:07:41.406Z,14.4
2022-10-15T06:08:57.652Z,14.4
2022-10-15T06:10:13.890Z,14.5
2022-10-15T06:12:45.394Z,14.5
2022-10-15T06:14:00.643Z,14.5
2022-10-15T06:15:16.893Z,14.5
2022-10-15T06:16:33.137Z,14.5
2022-10-15T06:17:49.356Z,14.5
2022-10-15T06:19:05.602Z,14.6
2022-10-15T06:20:21.845Z,14.6
2022-10-15T06:21:38.094Z,14.6
2022-10-15T06:22:54.319Z,14.6
2022-10-15T06:25:26.802Z,14.6
2022-10-15T06:27:58.302Z,14.6
2022-10-15T06:29:13.558Z,14.6
2022-10-15T06:30:29.807Z,14.6
2022-10-15T06:31:45.066Z,14.6
2022-10-15T06:33:01.307Z,14.7
2022-10-15T06:34:17.536Z,14.7
2022-10-15T06:35:33.771Z,14.7
2022-10-15T06:36:50.018Z,14.7
2022-10-15T06:38:06.253Z,14.8
2022-10-15T06:39:22.503Z,14.8
2022-10-15T06:40:38.732Z,14.8
2022-10-15T06:41:54.968Z,14.8
2022-10-15T06:43:10.248Z,14.8
2022-10-15T06:44:25.488Z,14.8
2022-10-15T06:45:41.728Z,14.8
2022-10-15T06:46:57.982Z,14.9
2022-10-15T06:48:14.205Z,14.9
2022-10-15T06:50:46.685Z,14.9
2022-10-15T06:52:02.926Z,15
2022-10-15T06:53:19.166Z,15
2022-10-15T06:54:35.407Z,15.1
2022-10-15T06:55:51.646Z,15.1
2022-10-15T06:57:07.897Z,15.2
2022-10-15T06:58:24.136Z,15.2
2022-10-15T06:59:40.374Z,15.3
2022-10-15T07:00:55.621Z,15.3
2022-10-15T07:03:28.112Z,15.4
2022-10-15T07:04:43.373Z,15.4
2022-10-15T07:05:59.615Z,15.4
2022-10-15T07:07:14.854Z,15.4
2022-10-15T07:08:31.104Z,15.4
2022-10-15T07:09:47.333Z,15.4
2022-10-15T07:11:03.574Z,15.4
2022-10-15T07:12:19.823Z,15.4
2022-10-15T07:14:52.307Z,15.4
2022-10-15T07:16:08.547Z,15.3
2022-10-15T07:18:41.011Z,15.3
2022-10-15T07:19:57.261Z,15.3
2022-10-15T07:22:28.762Z,15.3
2022-10-15T07:23:44.015Z,15.3
2022-10-15T07:24:59.278Z,15.3
2022-10-15T07:26:15.515Z,15.3
2022-10-15T07:28:47.994Z,15.3
2022-10-15T07:30:04.226Z,15.3
2022-10-15T07:31:20.480Z,15.3
2022-10-15T07:32:36.720Z,15.4
2022-10-15T07:33:52.961Z,15.4
2022-10-15T07:35:09.190Z,15.4
2022-10-15T07:37:41.673Z,15.5
2022-10-15T07:41:30.391Z,15.6
2022-10-15T07:42:45.640Z,15.6
2022-10-15T07:44:01.887Z,15.6
2022-10-15T07:45:18.129Z,15.6
2022-10-15T07:46:34.358Z,15.7
2022-10-15T07:47:50.605Z,15.7
2022-10-15T07:49:06.849Z,15.7
2022-10-15T07:50:23.087Z,15.8
2022-10-15T07:51:39.317Z,15.8
2022-10-15T07:54:11.810Z,15.9
2022-10-15T07:55:28.038Z,15.9
2022-10-15T07:56:44.280Z,16
2022-10-15T07:58:00.522Z,16.1
2022-10-15T07:59:16.755Z,16.1
2022-10-15T08:00:32.012Z,16.1
2022-10-15T08:01:48.257Z,16.2
2022-10-15T08:03:04.490Z,16.2
2022-10-15T08:04:20.727Z,16.2
2022-10-15T08:06:53.208Z,16.3
2022-10-15T08:08:09.446Z,16.2
2022-10-15T08:09:25.690Z,16.2
2022-10-15T08:10:41.940Z,16.2
2022-10-15T08:11:58.181Z,16.2
2022-10-15T08:13:14.410Z,16.2
2022-10-15T08:15:46.890Z,16.3
2022-10-15T08:17:02.137Z,16.4
2022-10-15T08:18:18.397Z,16.4
2022-10-15T08:19:34.621Z,16.5
2022-10-15T08:20:50.868Z,16.5
2022-10-15T08:22:07.103Z,16.6
2022-10-15T08:23:23.346Z,16.6
2022-10-15T08:24:39.579Z,16.6
2022-10-15T08:25:55.828Z,16.6
2022-10-15T08:27:12.057Z,16.7
2022-10-15T08:28:28.293Z,16.6
2022-10-15T08:29:44.550Z,16.6
2022-10-15T08:31:00.785Z,16.6
2022-10-15T08:32:17.012Z,16.6
2022-10-15T08:33:32.281Z,16.7
2022-10-15T08:34:48.518Z,16.6
2022-10-15T08:36:03.776Z,16.7
2022-10-15T08:38:36.253Z,16.6
2022-10-15T08:39:52.496Z,16.7
2022-10-15T08:41:08.734Z,16.7
2022-10-15T08:42:24.978Z,16.7
2022-10-15T08:43:41.211Z,16.8
2022-10-15T08:44:57.451Z,16.8
2022-10-15T08:46:13.683Z,16.9
2022-10-15T08:47:29.940Z,17
2022-10-15T08:48:46.176Z,17
2022-10-15T08:50:02.402Z,17.1
2022-10-15T08:51:18.649Z,17.2
2022-10-15T08:52:33.901Z,17.3
2022-10-15T08:53:50.141Z,17.3
2022-10-15T08:55:06.392Z,17.4
2022-10-15T08:56:22.628Z,17.4
2022-10-15T08:57:38.863Z,17.5
2022-10-15T09:01:27.584Z,17.5
2022-10-15T09:02:42.852Z,17.6
2022-10-15T09:03:58.107Z,17.6
2022-10-15T09:05:14.339Z,17.7
2022-10-15T09:06:30.581Z,17.8
2022-10-15T09:07:46.825Z,17.7
2022-10-15T09:09:03.060Z,17.8
2022-10-15T09:10:19.305Z,17.8
2022-10-15T09:11:35.550Z,17.8
2022-10-15T09:12:51.784Z,17.8
2022-10-15T09:14:08.019Z,17.8
2022-10-15T09:16:40.505Z,17.8
2022-10-15T09:17:56.737Z,17.8
2022-10-15T09:19:12.971Z,17.8
2022-10-15T09:20:28.225Z,17.8
2022-10-15T09:24:16.943Z,17.8
2022-10-15T09:25:33.196Z,17.8
2022-10-15T09:26:49.430Z,17.9
2022-10-15T09:28:05.664Z,17.9
2022-10-15T09:29:21.919Z,17.9
2022-10-15T09:31:54.397Z,18
2022-10-15T09:33:10.637Z,18
2022-10-15T09:34:26.864Z,17.9
2022-10-15T09:35:43.106Z,17.9
2022-10-15T09:36:59.348Z,17.9
2022-10-15T09:38:14.598Z,17.9
2022-10-15T09:39:30.835Z,17.9
2022-10-15T09:40:47.094Z,18
2022-10-15T09:42:03.322Z,17.9
2022-10-15T09:43:19.570Z,18
2022-10-15T09:44:35.808Z,18
2022-10-15T09:45:52.038Z,18
2022-10-15T09:47:08.275Z,18.1
2022-10-15T09:48:24.526Z,18.2
2022-10-15T09:49:40.767Z,18.3
2022-10-15T09:50:56.998Z,18.2
2022-10-15T09:52:12.257Z,18.3
2022-10-15T09:54:43.770Z,18.4
2022-10-15T09:56:00.007Z,18.4
2022-10-15T09:57:16.249Z,18.4
2022-10-15T09:58:32.469Z,18.4
2022-10-15T09:59:48.719Z,18.5
2022-10-15T10:01:04.951Z,18.4
2022-10-15T10:02:21.200Z,18.4
2022-10-15T10:03:37.442Z,18.4
2022-10-15T10:04:53.687Z,18.4
2022-10-15T10:06:09.913Z,18.4
2022-10-15T10:07:25.180Z,18.4
2022-10-15T10:08:40.438Z,18.4
2022-10-15T10:09:56.677Z,18.4
2022-10-15T10:11:12.920Z,18.4
2022-10-15T10:12:29.156Z,18.5
2022-10-15T10:13:45.385Z,18.5
2022-10-15T10:15:01.622Z,18.5
2022-10-15T10:16:17.868Z,18.5
2022-10-15T10:17:34.118Z,18.6
2022-10-15T10:18:50.355Z,18.6
2022-10-15T10:20:06.583Z,18.6
2022-10-15T10:21:22.833Z,18.5
2022-10-15T10:22:39.070Z,18.6
2022-10-15T10:23:55.318Z,18.6
2022-10-15T10:25:10.567Z,18.6
2022-10-15T10:26:26.798Z,18.6
2022-10-15T10:27:43.037Z,18.6
2022-10-15T10:28:58.297Z,18.6
2022-10-15T10:30:14.538Z,18.6
2022-10-15T10:31:30.783Z,18.6
2022-10-15T10:32:47.023Z,18.7
2022-10-15T10:34:03.255Z,18.7
2022-10-15T10:35:19.514Z,18.8
2022-10-15T10:36:35.734Z,18.9
2022-10-15T10:37:51.994Z,18.9
2022-10-15T10:40:24.465Z,18.9
2022-10-15T10:41:40.709Z,18.9
2022-10-15T10:42:56.944Z,19
2022-10-15T10:44:13.181Z,19
2022-10-15T10:45:28.439Z,19
2022-10-15T10:46:44.687Z,19.1
2022-10-15T10:48:00.911Z,19.1
2022-10-15T10:49:17.162Z,19.2
2022-10-15T10:50:33.392Z,19.2
2022-10-15T10:51:49.636Z,19.2
2022-10-15T10:53:05.872Z,19.2
2022-10-15T10:54:22.126Z,19.3
2022-10-15T10:55:38.367Z,19.4
2022-10-15T10:56:54.590Z,19.4
2022-10-15T10:58:10.841Z,19.4
2022-10-15T10:59:27.070Z,19.4
2022-10-15T11:00:43.309Z,19.4
2022-10-15T11:01:58.582Z,19.4
2022-10-15T11:03:14.815Z,19.4
2022-10-15T11:05:47.298Z,19.6
2022-10-15T11:07:03.534Z,19.5
2022-10-15T11:08:19.775Z,19.6
2022-10-15T11:09:36.015Z,19.7
2022-10-15T11:10:52.244Z,19.7
2022-10-15T11:12:08.487Z,19.7
2022-10-15T11:13:24.728Z,19.6
2022-10-15T11:14:40.967Z,19.6
2022-10-15T11:15:57.201Z,19.6
2022-10-15T11:18:29.685Z,19.6
2022-10-15T11:19:45.924Z,19.6
2022-10-15T11:21:01.191Z,19.6
2022-10-15T11:22:17.417Z,19.6
2022-10-15T11:23:33.673Z,19.6
2022-10-15T11:24:49.911Z,19.6
2022-10-15T11:26:06.137Z,19.8
2022-10-15T11:27:22.380Z,19.8
2022-10-15T11:28:38.616Z,19.8
2022-10-15T11:29:54.868Z,19.9
2022-10-15T11:31:11.101Z,19.9
2022-10-15T11:33:43.576Z,19.9
2022-10-15T11:34:59.819Z,20
2022-10-15T11:36:16.063Z,19.9
2022-10-15T11:37:31.324Z,19.9
2022-10-15T11:38:47.559Z,19.8
2022-10-15T11:41:20.040Z,19.7
2022-10-15T11:42:36.269Z,19.7
2022-10-15T11:43:52.515Z,19.7
2022-10-15T11:45:07.777Z,19.6
2022-10-15T11:46:23.031Z,19.6
2022-10-15T11:47:39.274Z,19.6
2022-10-15T11:48:55.519Z,19.6
2022-10-15T11:51:27.994Z,19.6
2022-10-15T11:52:44.232Z,19.7
2022-10-15T11:56:32.945Z,19.8
2022-10-15T11:57:49.186Z,19.8
2022-10-15T11:59:05.426Z,19.8
2022-10-15T12:00:21.673Z,19.7
2022-10-15T12:01:37.907Z,19.6
2022-10-15T12:04:09.408Z,19.6
2022-10-15T12:05:24.679Z,19.6
2022-10-15T12:06:39.925Z,19.6
2022-10-15T12:11:44.885Z,19.5
2022-10-15T12:13:01.125Z,19.5
2022-10-15T12:14:17.364Z,19.5
2022-10-15T12:15:33.600Z,19.5
2022-10-15T12:16:49.856Z,19.5
2022-10-15T12:19:22.334Z,19.5
2022-10-15T12:20:38.565Z,19.5
2022-10-15T12:21:54.821Z,19.5
2022-10-15T12:23:11.048Z,19.5
2022-10-15T12:24:26.313Z,19.5
2022-10-15T12:25:42.547Z,19.5
2022-10-15T12:26:58.783Z,19.5
2022-10-15T12:28:15.014Z,19.6
2022-10-15T12:29:31.273Z,19.6
2022-10-15T12:30:47.513Z,19.6
2022-10-15T12:32:03.743Z,19.7
2022-10-15T12:33:19.981Z,19.8
2022-10-15T12:34:36.212Z,19.8
2022-10-15T12:35:52.467Z,19.9
2022-10-15T12:37:08.706Z,19.9
2022-10-15T12:38:24.950Z,20
2022-10-15T12:39:40.193Z,20
2022-10-15T12:40:55.465Z,20
2022-10-15T12:42:11.702Z,20
2022-10-15T12:43:27.942Z,20
2022-10-15T12:44:44.174Z,20
2022-10-15T12:46:00.427Z,20
2022-10-15T12:47:16.654Z,20
2022-10-15T12:49:49.146Z,19.9
2022-10-15T12:51:05.372Z,19.9
2022-10-15T12:52:21.615Z,19.9
2022-10-15T12:53:37.857Z,19.9
2022-10-15T12:54:54.102Z,19.9
2022-10-15T12:56:10.334Z,19.8
2022-10-15T12:57:25.600Z,19.8
2022-10-15T12:58:41.837Z,19.8
2022-10-15T12:59:58.000Z,19.8
2022-10-15T13:01:14.312Z,19.7
2022-10-15T13:02:30.546Z,19.7
2022-10-15T13:05:03.030Z,19.7
2022-10-15T13:06:18.302Z,19.7
2022-10-15T13:07:33.537Z,19.7
2022-10-15T13:08:49.795Z,19.8
2022-10-15T13:10:06.018Z,19.7
2022-10-15T13:11:22.275Z,19.7
2022-10-15T13:12:38.499Z,19.7
2022-10-15T13:13:54.741Z,19.8
2022-10-15T13:15:10.989Z,19.7
2022-10-15T13:16:27.223Z,19.8
2022-10-15T13:17:43.475Z,19.8
2022-10-15T13:20:15.935Z,19.8
2022-10-15T13:21:32.178Z,19.8
2022-10-15T13:22:48.430Z,19.9
2022-10-15T13:24:04.673Z,19.9
2022-10-15T13:25:19.919Z,19.9
2022-10-15T13:26:36.150Z,20
2022-10-15T13:27:52.403Z,20
2022-10-15T13:29:08.643Z,20
2022-10-15T13:30:24.884Z,20
2022-10-15T13:31:41.111Z,20
2022-10-15T13:32:57.350Z,20
2022-10-15T13:34:12.610Z,20
2022-10-15T13:35:27.880Z,20
2022-10-15T13:36:44.126Z,20
2022-10-15T13:38:00.361Z,20
2022-10-15T13:39:16.599Z,19.9
2022-10-15T13:40:32.842Z,19.9
2022-10-15T13:43:05.321Z,19.8
2022-10-15T13:44:21.545Z,19.9
2022-10-15T13:45:37.792Z,19.9
2022-10-15T13:46:54.034Z,19.9
2022-10-15T13:48:10.264Z,19.9
2022-10-15T13:49:26.512Z,19.9
2022-10-15T13:50:42.757Z,19.9
2022-10-15T13:51:58.013Z,19.9
2022-10-15T13:53:14.238Z,19.9
2022-10-15T13:55:46.724Z,19.9
2022-10-15T13:58:18.236Z,20
2022-10-15T13:59:33.489Z,20
2022-10-15T14:00:48.739Z,20
2022-10-15T14:02:04.992Z,20
2022-10-15T14:03:21.219Z,20
2022-10-15T14:04:37.462Z,20
2022-10-15T14:05:53.703Z,20
2022-10-15T14:07:09.956Z,20
2022-10-15T14:08:26.191Z,20
2022-10-15T14:09:42.428Z,20
2022-10-15T14:10:58.656Z,20
2022-10-15T14:12:14.899Z,20
2022-10-15T14:14:46.395Z,20
2022-10-15T14:16:01.655Z,20
2022-10-15T14:17:17.899Z,20.1
2022-10-15T14:18:34.130Z,20
2022-10-15T14:21:06.620Z,20.1
2022-10-15T14:22:22.869Z,20.1
2022-10-15T14:23:39.094Z,20
2022-10-15T14:24:55.340Z,20
2022-10-15T14:27:27.825Z,19.9
2022-10-15T14:28:44.063Z,19.9
2022-10-15T14:30:00.300Z,19.9
2022-10-15T14:31:16.545Z,19.9
2022-10-15T14:32:31.784Z,19.9
2022-10-15T14:33:48.037Z,19.9
2022-10-15T14:35:04.265Z,19.9
2022-10-15T14:36:20.519Z,19.8
2022-10-15T14:37:36.747Z,19.8
2022-10-15T14:38:52.996Z,19.8
2022-10-15T14:40:09.226Z,19.8
2022-10-15T14:41:25.470Z,19.8
2022-10-15T14:42:41.700Z,19.8
2022-10-15T14:43:57.948Z,19.8
2022-10-15T14:45:13.217Z,19.7
2022-10-15T14:46:29.444Z,19.7
2022-10-15T14:47:44.715Z,19.7
2022-10-15T14:48:59.966Z,19.7
2022-10-15T14:51:32.448Z,19.7
2022-10-15T14:52:48.694Z,19.7
2022-10-15T14:54:04.931Z,19.7
2022-10-15T14:55:21.163Z,19.7
2022-10-15T14:56:37.396Z,19.6
2022-10-15T14:59:09.894Z,19.7
2022-10-15T15:00:26.132Z,19.6
2022-10-15T15:01:42.367Z,19.6
2022-10-15T15:02:58.612Z,19.6
2022-10-15T15:05:31.092Z,19.6
2022-10-15T15:06:47.319Z,19.6
2022-10-15T15:08:03.560Z,19.6
2022-10-15T15:09:18.831Z,19.6
2022-10-15T15:10:35.071Z,19.6
2022-10-15T15:11:50.322Z,19.5
2022-10-15T15:13:06.564Z,19.5
2022-10-15T15:14:22.803Z,19.5
2022-10-15T15:18:11.523Z,19.4
2022-10-15T15:19:27.759Z,19.3
2022-10-15T15:20:44.005Z,19.3
2022-10-15T15:22:00.235Z,19.3
2022-10-15T15:23:16.480Z,19.3
2022-10-15T15:24:32.721Z,19.2
2022-10-15T15:25:48.952Z,19.2
2022-10-15T15:27:05.197Z,19.2
2022-10-15T15:28:20.457Z,19.1
2022-10-15T15:29:36.689Z,19.1
2022-10-15T15:30:52.928Z,19.1
2022-10-15T15:32:09.167Z,19.1
2022-10-15T15:33:25.411Z,19.1
2022-10-15T15:34:41.658Z,19
2022-10-15T15:35:57.888Z,19
2022-10-15T15:37:14.126Z,18.9
2022-10-15T15:38:30.379Z,18.9
2022-10-15T15:39:46.612Z,18.9
2022-10-15T15:41:02.844Z,18.9
2022-10-15T15:42:19.094Z,18.9
2022-10-15T15:43:35.326Z,18.8
2022-10-15T15:44:50.585Z,18.8
2022-10-15T15:46:05.854Z,18.8
2022-10-15T15:47:22.081Z,18.8
2022-10-15T15:48:38.335Z,18.8
2022-10-15T15:49:54.564Z,18.7
2022-10-15T15:52:27.038Z,18.7
2022-10-15T15:56:15.757Z,18.6
2022-10-15T15:57:31.998Z,18.6
2022-10-15T15:58:48.256Z,18.6
2022-10-15T16:00:04.481Z,18.6
2022-10-15T16:01:20.720Z,18.5
2022-10-15T16:03:52.232Z,18.5
2022-10-15T16:05:07.497Z,18.5
2022-10-15T16:06:22.751Z,18.5
2022-10-15T16:08:55.219Z,18.5
2022-10-15T16:10:11.454Z,18.5
2022-10-15T16:11:27.711Z,18.5
2022-10-15T16:12:43.937Z,18.5
2022-10-15T16:14:00.187Z,18.5
2022-10-15T16:15:16.416Z,18.5
2022-10-15T16:16:32.659Z,18.4
2022-10-15T16:17:48.906Z,18.4
2022-10-15T16:19:05.134Z,18.4
2022-10-15T16:20:21.380Z,18.4
2022-10-15T16:21:37.615Z,18.4
2022-10-15T16:22:52.883Z,18.4
2022-10-15T16:24:09.104Z,18.4
2022-10-15T16:25:25.350Z,18.3
2022-10-15T16:26:41.586Z,18.4
2022-10-15T16:27:57.840Z,18.4
2022-10-15T16:29:14.074Z,18.3
2022-10-15T16:30:30.305Z,18.3
2022-10-15T16:31:46.563Z,18.3
2022-10-15T16:33:01.813Z,18.3
2022-10-15T16:34:18.064Z,18.3
2022-10-15T16:35:33.320Z,18.3
2022-10-15T16:36:49.554Z,18.3
2022-10-15T16:38:05.799Z,18.3
2022-10-15T16:39:22.022Z,18.2
2022-10-15T16:40:38.277Z,18.2
2022-10-15T16:41:54.514Z,18.2
2022-10-15T16:43:10.751Z,18.2
2022-10-15T16:44:26.995Z,18.2
2022-10-15T16:46:59.472Z,18.2
2022-10-15T16:48:15.711Z,18.1
2022-10-15T16:49:31.949Z,18.1
2022-10-15T16:50:48.241Z,18.1
2022-10-15T16:52:03.550Z,18.1
2022-10-15T16:53:19.849Z,18
2022-10-15T16:54:36.144Z,18
2022-10-15T16:55:52.433Z,18
2022-10-15T16:57:08.720Z,17.9
2022-10-15T16:59:41.315Z,17.9
2022-10-15T17:00:57.596Z,17.9
2022-10-15T17:02:13.889Z,17.9
2022-10-15T17:03:30.193Z,17.9
2022-10-15T17:04:46.479Z,17.8
2022-10-15T17:06:02.782Z,17.9
2022-10-15T17:07:19.079Z,17.9
2022-10-15T17:08:34.375Z,17.9
2022-10-15T17:09:50.681Z,17.9
2022-10-15T17:11:06.978Z,17.8
2022-10-15T17:12:23.265Z,17.8
2022-10-15T17:13:38.571Z,17.8
2022-10-15T17:14:54.874Z,17.8
2022-10-15T17:16:11.178Z,17.8
2022-10-15T17:18:42.769Z,17.6
2022-10-15T17:19:59.074Z,17.7
2022-10-15T17:21:15.361Z,17.6
2022-10-15T17:22:31.657Z,17.6
2022-10-15T17:23:47.942Z,17.6
2022-10-15T17:25:04.248Z,17.6
2022-10-15T17:26:20.524Z,17.6
2022-10-15T17:27:36.834Z,17.6
2022-10-15T17:28:53.113Z,17.5
2022-10-15T17:30:09.409Z,17.5
2022-10-15T17:31:25.708Z,17.5
2022-10-15T17:33:58.293Z,17.5
2022-10-15T17:35:13.602Z,17.4
2022-10-15T17:37:45.209Z,17.4
2022-10-15T17:39:01.518Z,17.4
2022-10-15T17:40:17.807Z,17.3
2022-10-15T17:41:34.103Z,17.3
2022-10-15T17:42:50.388Z,17.3
2022-10-15T17:44:06.676Z,17.2
2022-10-15T17:45:22.980Z,17.2
2022-10-15T17:46:39.269Z,17.3
2022-10-15T17:47:55.566Z,17.2
2022-10-15T17:49:11.866Z,17.2
2022-10-15T17:50:28.145Z,17.3
2022-10-15T17:51:43.474Z,17.3
2022-10-15T17:52:58.770Z,17.3
2022-10-15T17:54:15.070Z,17.3
2022-10-15T17:55:31.363Z,17.3
2022-10-15T17:56:47.664Z,17.3
2022-10-15T17:58:03.950Z,17.3
2022-10-15T17:59:20.256Z,17.3
2022-10-15T18:00:36.533Z,17.3
2022-10-15T18:01:52.827Z,17.4
2022-10-15T18:03:09.124Z,17.4
2022-10-15T18:04:25.414Z,17.4
2022-10-15T18:05:41.715Z,17.3
2022-10-15T18:06:58.003Z,17.4
2022-10-15T18:08:14.300Z,17.3
2022-10-15T18:09:29.607Z,17.4
2022-10-15T18:10:45.912Z,17.4
2022-10-15T18:12:02.202Z,17.4
2022-10-15T18:13:18.493Z,17.3
2022-10-15T18:14:34.782Z,17.4
2022-10-15T18:15:51.076Z,17.4
2022-10-15T18:17:07.386Z,17.3
2022-10-15T18:18:23.662Z,17.4
2022-10-15T18:19:39.965Z,17.3
2022-10-15T18:20:56.256Z,17.3
2022-10-15T18:22:12.547Z,17.3
2022-10-15T18:23:28.853Z,17.3
2022-10-15T18:24:45.148Z,17.3
2022-10-15T18:26:00.458Z,17.3
2022-10-15T18:27:16.739Z,17.2
2022-10-15T18:28:33.046Z,17.2
2022-10-15T18:29:49.334Z,17.2
2022-10-15T18:32:21.915Z,17.2
2022-10-15T18:34:54.511Z,17.2
2022-10-15T18:36:10.803Z,17.2
2022-10-15T18:37:27.088Z,17.1
2022-10-15T18:38:43.390Z,17.1
2022-10-15T18:39:59.673Z,17.1
2022-10-15T18:41:15.981Z,17
2022-10-15T18:42:31.288Z,17
2022-10-15T18:43:47.579Z,16.9
2022-10-15T18:45:03.873Z,16.9
2022-10-15T18:46:20.160Z,16.8
2022-10-15T18:47:36.457Z,16.8
2022-10-15T18:48:52.756Z,16.8
2022-10-15T18:50:09.044Z,16.7
2022-10-15T18:51:25.337Z,16.7